メインページ
METAR-TAF:

METAR-TAF

空港 :

グアム国際空港

ハガニア, グアム, アメリカ合衆国

緯度: 13-29N, 経度: 144-48E, 海抜: 91m

現時点の気象観測

当レポートは32分前の18:54(UTC)に作成
の風 6kt
気温 27°C
湿度 100%
気圧 1007 hPa
視程: 16.1km
晴天

METAR: PGUM 181854Z 36006KT 10SM CLR 27/27 A2973 RMK AO2 SLP059 T02720267 $

時間: 05:26 (19:26 UTC)

予報

当レポートは1時間49分前の17:37(UTC)に作成
予報は18日の 18時(UTC)から 19日の 24時(UTC)まで有効
東/北東の風 8kt
視程: 10km
高度1800ftの雲はほとんどない
高度4000ftの雲は散在している
高度16000ftの雲は散在している
近辺でにわか雨
19日の 0000時(UTC)から
北東の風 11kt、最大18ktの突風を伴う
視程: 10km
高度1600ftの雲は散在している
高度4000ftの雲は散在している
高度14000ftの千切れ雲あり
近辺でにわか雨
19日の 00時(UTC)から 19日の 04時(UTC)まで一時的に
視程: 8.0km
高度1400ftの雲は散在している
高度2500ftの千切れ雲あり
にわか雨
19日の 0900時(UTC)から
東/北東の風 11kt
視程: 10km
高度1600ftの雲は散在している
高度4000ftの雲は散在している
高度12000ftの千切れ雲あり
近辺でにわか雨

TAF: PGUM 181737Z 1818/1924 06008KT P6SM VCSH FEW018 SCT040 SCT160 FM190000 05011G18KT P6SM VCSH SCT016 SCT040 BKN140 TEMPO 1900/1904 5SM SHRA SCT014 BKN025 FM190900 07011KT P6SM VCSH SCT016 SCT040 BKN120

4,000以上の空港の気象観測と天気予報(METAR報とTAF報)

利用可能な観測所は地図上に黄色い丸と赤い丸で示す。

丸の上にカーソルを重ねると観測所名を参照できる。

次にクリックすると気象観測と天気予報を参照できる。

マップの切り替え:黒色「×」印の緑ボタンをクリックして拡大、「-」印の緑ボタンをクリックして縮小、緑色の三角印をクリックして隣りの地図に切り替え


METAR-TAF: